Time;durP1;ratioP1;P1;durP2;ratioP2;P2;SDS_P1;SDS_P2;PMS_P1;PMS_P2;Temp;Humidity;BMP_temperature;BMP_pressure;BME280_temperature;BME280_humidity;BME280_pressure;Samples;Min_cycle;Max_cycle;Signal;HPM_P1;HPM_P2
2023/05/31 00:00:31;;;;;;;19.42;6.43;;;;;;;11.72;85.80;102902.06;6112103;19;20526;-79
2023/05/31 00:02:41;;;;;;;17.77;5.72;;;;;;;11.70;85.36;102906.47;6116557;19;20015;-80
2023/05/31 00:05:12;;;;;;;16.15;6.38;;;;;;;11.67;85.93;102892.50;6109933;19;20085;-79
2023/05/31 00:07:22;;;;;;;18.42;6.28;;;;;;;11.68;86.10;102897.72;6121449;19;20015;-78
2023/05/31 00:09:28;;;;;;;19.30;6.63;;;;;;;11.63;86.52;102902.16;6114181;19;20011;-80
2023/05/31 00:11:40;;;;;;;16.08;7.20;;;;;;;11.69;86.35;102902.13;6106127;19;20029;-78
2023/05/31 00:13:51;;;;;;;18.65;6.80;;;;;;;11.64;86.49;102896.03;6111614;19;20019;-79
2023/05/31 00:16:00;;;;;;;16.88;6.43;;;;;;;11.60;86.29;102899.56;6112057;19;20503;-79
2023/05/31 00:18:12;;;;;;;15.27;6.75;;;;;;;11.61;86.53;102903.94;6112197;19;20011;-79
2023/05/31 00:20:26;;;;;;;14.35;6.22;;;;;;;11.57;86.95;102897.00;6107786;19;20007;-79
2023/05/31 00:22:33;;;;;;;19.27;6.90;;;;;;;11.56;86.52;102900.53;6107595;19;20013;-79
2023/05/31 00:24:43;;;;;;;17.77;6.55;;;;;;;11.55;86.67;102901.38;6110385;19;20075;-81
2023/05/31 00:26:52;;;;;;;17.90;6.78;;;;;;;11.52;86.88;102904.94;6109673;19;20039;-80
2023/05/31 00:28:59;;;;;;;19.48;6.82;;;;;;;11.52;86.78;102898.78;6111623;19;20025;-80
2023/05/31 00:33:57;;;;;;;15.02;6.70;;;;;;;11.43;87.21;102889.25;6080411;19;20056;-81
2023/05/31 00:36:20;;;;;;;18.15;6.68;;;;;;;11.41;86.77;102883.13;6084731;19;20534;-80
2023/05/31 00:38:28;;;;;;;17.42;7.15;;;;;;;11.38;87.30;102891.06;6105893;19;20007;-81
2023/05/31 00:40:39;;;;;;;16.15;5.93;;;;;;;11.41;87.39;102896.28;6074962;19;20094;-78
2023/05/31 00:42:52;;;;;;;14.20;6.43;;;;;;;11.39;87.17;102898.91;6104044;19;20295;-80
2023/05/31 00:45:04;;;;;;;18.08;6.53;;;;;;;11.33;87.62;102891.09;6075223;19;20002;-79
2023/05/31 00:47:13;;;;;;;15.63;6.70;;;;;;;11.27;87.03;102879.75;6103844;19;20002;-79
2023/05/31 00:49:26;;;;;;;13.60;6.55;;;;;;;11.32;87.16;102885.84;6102273;19;20074;-80
2023/05/31 00:51:47;;;;;;;14.57;5.93;;;;;;;11.34;87.13;102889.34;6073426;19;20062;-80
2023/05/31 00:53:59;;;;;;;17.20;7.40;;;;;;;11.32;87.16;102886.75;6101819;19;20014;-79
2023/05/31 00:56:08;;;;;;;16.33;6.65;;;;;;;11.29;87.61;102886.75;6077992;19;20574;-78
2023/05/31 00:58:16;;;;;;;12.43;5.85;;;;;;;11.32;87.44;102885.84;6103857;19;20019;-81
2023/05/31 01:00:31;;;;;;;13.48;5.78;;;;;;;11.31;87.34;102882.34;6092371;19;20009;-79
2023/05/31 01:02:51;;;;;;;15.52;5.35;;;;;;;11.29;87.65;102888.50;6083995;19;20538;-80
2023/05/31 01:05:00;;;;;;;16.45;5.88;;;;;;;11.24;87.37;102892.94;6102312;19;20488;-79
2023/05/31 01:07:13;;;;;;;13.52;5.00;;;;;;;11.19;87.36;102899.16;6105658;19;20011;-78
2023/05/31 01:09:24;;;;;;;14.90;5.53;;;;;;;11.17;87.71;102897.41;6103016;19;20496;-77
2023/05/31 01:11:54;;;;;;;13.88;5.18;;;;;;;11.11;87.72;102900.09;6103836;19;20002;-81
2023/05/31 01:14:12;;;;;;;12.48;5.53;;;;;;;11.10;87.57;102893.09;6106665;19;20089;-80
2023/05/31 01:16:28;;;;;;;14.27;6.68;;;;;;;11.08;87.59;102894.88;6078557;19;20003;-79
2023/05/31 01:18:48;;;;;;;13.05;5.60;;;;;;;11.03;87.99;102884.38;6107990;19;20011;-81
2023/05/31 01:21:11;;;;;;;14.88;5.80;;;;;;;11.05;87.75;102887.00;6108616;19;20049;-83
2023/05/31 01:23:41;;;;;;;13.88;5.53;;;;;;;11.10;87.69;102891.34;6113483;19;20014;-79
2023/05/31 01:26:30;;;;;;;12.50;5.45;;;;;;;11.06;87.67;102889.63;6113625;19;20021;-81
2023/05/31 01:28:50;;;;;;;10.52;5.15;;;;;;;10.99;88.16;102885.31;6119517;19;20058;-79
2023/05/31 01:31:04;;;;;;;11.43;5.50;;;;;;;10.98;87.75;102881.81;6116636;19;20031;-81
2023/05/31 01:33:20;;;;;;;11.85;5.30;;;;;;;10.99;87.76;102882.69;6120164;19;20011;-80
2023/05/31 01:35:36;;;;;;;11.70;4.95;;;;;;;10.98;87.67;102889.72;6119267;19;20013;-80
2023/05/31 01:37:42;;;;;;;11.05;4.78;;;;;;;10.93;88.27;102888.88;6095118;19;20016;-81
2023/05/31 01:40:03;;;;;;;10.73;4.93;;;;;;;10.95;88.10;102889.75;6112592;19;20535;-81
2023/05/31 01:42:29;;;;;;;13.68;5.45;;;;;;;10.88;88.44;102885.41;6083159;19;20013;-81
2023/05/31 01:44:51;;;;;;;9.90;4.00;;;;;;;10.90;88.37;102883.66;6111356;19;20018;-81
2023/05/31 01:47:06;;;;;;;10.82;5.35;;;;;;;10.93;88.20;102888.00;6106401;19;20013;-80
2023/05/31 01:49:14;;;;;;;11.60;5.00;;;;;;;10.88;88.46;102890.69;6109652;19;20018;-81
2023/05/31 01:51:24;;;;;;;11.75;5.05;;;;;;;10.91;88.34;102893.28;6108241;19;20010;-80
2023/05/31 01:53:44;;;;;;;9.88;4.78;;;;;;;10.87;88.33;102885.41;6099543;19;20006;-80
2023/05/31 01:55:55;;;;;;;9.52;5.13;;;;;;;10.84;88.16;102886.31;6094476;19;20010;-80
2023/05/31 01:58:16;;;;;;;10.23;4.85;;;;;;;10.84;88.46;102888.94;6102795;19;20130;-80
2023/05/31 02:00:52;;;;;;;8.95;4.53;;;;;;;10.75;88.44;102884.66;6107288;19;20034;-80
2023/05/31 02:03:23;;;;;;;12.60;5.07;;;;;;;10.81;88.57;102893.38;6095494;19;20007;-81
2023/05/31 02:05:57;;;;;;;9.48;4.50;;;;;;;10.77;88.33;102888.13;6081185;19;20006;-80
2023/05/31 02:08:09;;;;;;;12.10;4.80;;;;;;;10.67;88.53;102875.94;6084654;19;20236;-79
2023/05/31 02:10:45;;;;;;;10.15;4.30;;;;;;;10.77;88.75;102882.00;6105565;19;20035;-80
2023/05/31 02:13:04;;;;;;;10.27;4.28;;;;;;;10.64;88.64;102869.84;6100173;19;20008;-78
2023/05/31 02:15:15;;;;;;;10.02;4.32;;;;;;;10.63;88.98;102870.72;6104840;19;20569;-79
2023/05/31 02:17:32;;;;;;;10.15;4.55;;;;;;;10.70;88.76;102875.06;6092717;19;20709;-81
2023/05/31 02:19:58;;;;;;;9.98;4.43;;;;;;;10.67;88.75;102882.97;6090486;19;20011;-79
2023/05/31 02:22:37;;;;;;;9.68;4.13;;;;;;;10.61;89.26;102878.63;6095488;19;20007;-80
2023/05/31 02:24:50;;;;;;;8.68;4.07;;;;;;;10.64;89.25;102877.75;6100805;19;20022;-80
2023/05/31 02:27:05;;;;;;;14.15;5.13;;;;;;;10.60;89.02;102882.13;6098206;19;20535;-81
2023/05/31 02:29:32;;;;;;;9.50;4.53;;;;;;;10.54;89.31;102874.31;6091203;19;20667;-79
2023/05/31 02:31:45;;;;;;;9.93;4.13;;;;;;;10.56;89.37;102883.06;6106017;19;20353;-80
2023/05/31 02:34:05;;;;;;;12.63;5.35;;;;;;;10.50;89.39;102876.06;6087686;19;20006;-81
2023/05/31 02:36:25;;;;;;;14.95;5.05;;;;;;;10.56;89.38;102877.81;6059188;19;20011;-79
2023/05/31 02:38:34;;;;;;;10.60;4.40;;;;;;;10.54;89.50;102890.06;6105105;19;20025;-79
2023/05/31 02:40:52;;;;;;;11.52;4.70;;;;;;;10.46;89.74;102886.63;6082097;19;20021;-78
2023/05/31 02:43:27;;;;;;;10.30;4.75;;;;;;;10.45;89.78;102893.66;6105025;19;20478;-79
2023/05/31 02:45:54;;;;;;;8.77;4.75;;;;;;;10.51;89.69;102882.22;6075085;19;20018;-80
2023/05/31 02:50:58;;;;;;;10.68;4.65;;;;;;;10.43;89.68;102870.88;6065183;19;20358;-79
2023/05/31 02:53:24;;;;;;;;;;;;;;;;;;;;;
2023/05/31 02:55:54;;;;;;;9.48;4.60;;;;;;;10.34;90.07;102874.44;6084867;19;20015;-79
2023/05/31 02:58:27;;;;;;;10.52;4.22;;;;;;;10.34;89.97;102866.56;6113816;19;20056;-80
2023/05/31 03:03:43;;;;;;;11.77;4.65;;;;;;;10.26;90.07;102863.06;6070262;19;20050;-79
2023/05/31 03:05:59;;;;;;;10.90;4.78;;;;;;;10.30;90.30;102884.09;6103595;19;20083;-78
2023/05/31 03:09:07;;;;;;;10.30;5.00;;;;;;;10.25;90.64;102879.75;6083392;19;20080;-79
2023/05/31 03:13:59;;;;;;;9.20;4.47;;;;;;;10.17;90.58;102864.03;6084646;19;20018;-80
2023/05/31 03:16:42;;;;;;;11.40;4.88;;;;;;;10.17;90.68;102868.41;6112456;19;20010;-80
2023/05/31 03:19:35;;;;;;;9.93;4.30;;;;;;;10.06;91.12;102860.59;6073512;19;20019;-79
2023/05/31 03:22:18;;;;;;;11.25;4.95;;;;;;;10.14;90.73;102860.50;6056229;19;20532;-77
2023/05/31 03:24:56;;;;;;;10.07;4.75;;;;;;;10.18;90.89;102868.38;6099926;19;20010;-80
2023/05/31 03:27:39;;;;;;;11.55;5.25;;;;;;;10.22;90.51;102874.50;6074921;19;20010;-79
2023/05/31 03:30:37;;;;;;;;;;;;;;;;;;;;;
2023/05/31 03:33:05;;;;;;;12.10;5.25;;;;;;;10.10;91.22;102852.66;6073603;19;20318;-80
2023/05/31 03:35:27;;;;;;;9.38;4.72;;;;;;;10.08;91.17;102864.06;6052565;19;20131;-79
2023/05/31 03:37:57;;;;;;;9.95;4.50;;;;;;;10.10;91.17;102857.91;6062572;19;20082;-79
2023/05/31 03:40:26;;;;;;;12.52;5.90;;;;;;;10.04;90.88;102855.34;6080755;19;20062;-79
2023/05/31 03:46:30;;;;;;;13.68;5.38;;;;;;;10.02;91.00;102859.72;6001458;19;20016;-78
2023/05/31 03:54:56;;;;;;;13.02;5.20;;;;;;;10.01;91.52;102868.50;6067904;19;20035;-79
2023/05/31 03:57:04;;;;;;;12.07;5.68;;;;;;;10.02;91.50;102875.47;6095962;19;20010;-78
2023/05/31 03:59:21;;;;;;;13.57;5.82;;;;;;;10.03;91.50;102871.09;6087208;19;20011;-80
2023/05/31 04:01:45;;;;;;;16.40;6.63;;;;;;;10.03;91.72;102872.00;6085722;19;20003;-78
2023/05/31 04:07:11;;;;;;;13.00;5.40;;;;;;;10.17;91.29;102868.41;6047183;19;20014;-77
2023/05/31 04:12:57;;;;;;;14.82;5.57;;;;;;;10.14;91.21;102873.66;5982877;19;20006;-79
2023/05/31 04:19:20;;;;;;;;;;;;;;;;;;;;;
2023/05/31 04:28:12;;;;;;;17.60;6.00;;;;;;;10.29;91.16;102873.59;6073256;19;20104;-79
2023/05/31 04:34:30;;;;;;;15.05;6.68;;;;;;;10.37;91.09;102886.69;6068167;19;20003;-78
2023/05/31 04:36:35;;;;;;;15.48;6.85;;;;;;;10.55;90.52;102890.03;6050694;19;20062;-79
2023/05/31 04:38:50;;;;;;;17.63;6.10;;;;;;;10.59;90.57;102890.91;6068623;19;20018;-79
2023/05/31 04:41:00;;;;;;;16.08;6.22;;;;;;;10.67;90.32;102883.84;6100476;19;20017;-79
2023/05/31 04:43:56;;;;;;;17.10;6.53;;;;;;;10.77;90.31;102879.38;6100389;19;20011;-79
2023/05/31 04:46:40;;;;;;;19.48;7.72;;;;;;;10.91;89.68;102880.13;6066117;19;20010;-79
2023/05/31 04:48:57;;;;;;;15.82;6.60;;;;;;;11.03;88.99;102876.47;6095360;19;20006;-79
2023/05/31 04:51:23;;;;;;;17.25;6.75;;;;;;;11.11;88.44;102873.78;6102378;19;20022;-79
2023/05/31 04:54:00;;;;;;;19.02;6.88;;;;;;;11.31;88.36;102884.13;6077512;19;20023;-78
2023/05/31 04:56:15;;;;;;;19.80;6.53;;;;;;;11.48;87.83;102891.81;6073591;19;20046;-78
2023/05/31 04:58:50;;;;;;;19.08;6.50;;;;;;;11.58;87.35;102885.56;6104802;19;20003;-79
2023/05/31 05:03:44;;;;;;;17.83;6.82;;;;;;;11.89;86.14;102877.31;6053896;19;20023;-79
2023/05/31 05:06:31;;;;;;;21.02;8.40;;;;;;;12.02;85.65;102874.47;6100697;19;19999;-79
2023/05/31 05:08:45;;;;;;;16.30;7.13;;;;;;;12.16;84.75;102890.09;6047851;19;20010;-79
2023/05/31 05:10:57;;;;;;;22.85;7.63;;;;;;;12.28;84.75;102881.16;6060922;19;20078;-79
2023/05/31 05:13:26;;;;;;;;;;;;;;;;;;;;;
2023/05/31 05:15:42;;;;;;;19.35;7.60;;;;;;;12.38;83.37;102868.69;6060062;19;20441;-79
2023/05/31 05:18:05;;;;;;;19.90;7.40;;;;;;;12.56;83.02;102884.25;6027390;19;20628;-78
2023/05/31 05:21:00;;;;;;;21.45;7.72;;;;;;;12.70;82.58;102881.38;6075419;19;20706;-79
2023/05/31 05:23:39;;;;;;;19.20;8.20;;;;;;;12.80;81.99;102868.91;6081104;19;20081;-79
2023/05/31 05:29:24;;;;;;;19.02;7.35;;;;;;;13.27;80.93;102888.28;6083073;19;20035;-78
2023/05/31 05:32:01;;;;;;;20.15;7.53;;;;;;;13.36;80.38;102888.13;6066768;19;20018;-80
2023/05/31 05:34:20;;;;;;;19.58;7.90;;;;;;;13.57;79.62;102890.34;6084809;19;20018;-78
2023/05/31 05:36:57;;;;;;;22.73;8.13;;;;;;;13.68;78.79;102891.88;6097701;19;20014;-81
2023/05/31 05:39:08;;;;;;;20.27;7.75;;;;;;;13.78;78.61;102893.44;6078777;19;20010;-78
2023/05/31 05:41:15;;;;;;;20.10;7.97;;;;;;;13.89;77.68;102891.44;6099874;19;20759;-80
2023/05/31 05:43:29;;;;;;;22.38;8.43;;;;;;;14.07;77.22;102895.44;6095259;19;20021;-78
2023/05/31 05:45:36;;;;;;;23.80;8.90;;;;;;;14.33;77.24;102894.84;6086827;19;20003;-80
2023/05/31 05:47:55;;;;;;;23.10;8.95;;;;;;;14.39;76.33;102892.06;6109294;19;20011;-81
2023/05/31 05:50:08;;;;;;;23.90;9.32;;;;;;;14.37;75.54;102904.44;6108907;19;20452;-79
2023/05/31 05:52:25;;;;;;;24.33;9.23;;;;;;;14.48;76.03;102894.50;6107646;19;20279;-79
2023/05/31 05:54:48;;;;;;;;;;;;;;;;;;;;;
2023/05/31 05:56:59;;;;;;;22.20;8.50;;;;;;;14.60;74.86;102890.72;6115758;19;20010;-77
2023/05/31 05:59:11;;;;;;;23.00;8.98;;;;;;;14.66;74.82;102898.47;6109152;19;20361;-80
2023/05/31 06:01:22;;;;;;;23.08;8.65;;;;;;;14.91;74.16;102898.75;6121381;19;20020;-80
2023/05/31 06:03:27;;;;;;;24.27;10.18;;;;;;;15.02;73.70;102894.97;6100426;19;20002;-80
2023/05/31 06:05:36;;;;;;;21.80;9.25;;;;;;;15.34;73.63;102886.13;6125339;19;20046;-79
2023/05/31 06:07:47;;;;;;;22.58;8.80;;;;;;;15.50;72.87;102890.09;6122712;19;20109;-79
2023/05/31 06:09:54;;;;;;;26.40;9.45;;;;;;;15.54;72.30;102890.88;6125233;19;20014;-79
2023/05/31 06:12:00;;;;;;;26.38;10.82;;;;;;;15.62;71.60;102896.81;6120895;19;20049;-79
2023/05/31 06:14:06;;;;;;;25.40;10.23;;;;;;;15.72;70.96;102889.53;6123195;19;20010;-79
2023/05/31 06:16:13;;;;;;;26.75;9.35;;;;;;;15.72;70.30;102890.38;6123338;19;20018;-80
2023/05/31 06:18:22;;;;;;;25.05;9.85;;;;;;;15.76;70.54;102897.31;6111799;19;20357;-79
2023/05/31 06:20:30;;;;;;;26.10;10.05;;;;;;;15.85;70.32;102897.94;6116507;19;20002;-79
2023/05/31 06:22:39;;;;;;;26.63;10.07;;;;;;;16.01;69.58;102893.94;6086344;19;20039;-80
2023/05/31 06:25:05;;;;;;;24.52;9.82;;;;;;;16.12;69.60;102899.78;6105739;19;20039;-80
2023/05/31 06:27:14;;;;;;;21.80;8.98;;;;;;;16.07;68.97;102899.06;6109862;19;20010;-79
2023/05/31 06:29:21;;;;;;;25.73;9.68;;;;;;;16.02;69.18;102900.97;6107525;19;20400;-79
2023/05/31 06:31:30;;;;;;;24.73;9.25;;;;;;;16.35;68.96;102900.81;6106948;19;20101;-79
2023/05/31 06:33:37;;;;;;;27.13;10.48;;;;;;;16.43;68.52;102896.16;6096161;19;20017;-78
2023/05/31 06:35:47;;;;;;;21.88;8.85;;;;;;;16.35;68.17;102898.16;6106102;19;20559;-79
2023/05/31 06:37:56;;;;;;;26.35;8.77;;;;;;;16.42;68.01;102902.38;6111261;19;20006;-80
2023/05/31 06:40:09;;;;;;;24.23;10.70;;;;;;;16.47;67.43;102895.13;6095334;19;20010;-80
2023/05/31 06:42:19;;;;;;;23.73;8.95;;;;;;;16.46;67.88;102901.38;6106697;19;20098;-82
2023/05/31 06:44:27;;;;;;;24.95;9.65;;;;;;;16.65;67.28;102891.88;6095102;19;20010;-81
2023/05/31 06:46:45;;;;;;;24.08;9.35;;;;;;;16.98;66.96;102891.69;6103348;19;20275;-82
2023/05/31 06:48:57;;;;;;;25.77;9.45;;;;;;;17.49;65.81;102893.41;6097203;19;20757;-83
2023/05/31 06:51:22;;;;;;;30.25;9.20;;;;;;;17.45;65.00;102888.25;6100179;19;20013;-83
2023/05/31 06:53:29;;;;;;;18.88;8.20;;;;;;;17.47;64.75;102879.28;6097422;19;20014;-82
2023/05/31 06:55:47;;;;;;;21.13;9.63;;;;;;;17.80;64.38;102886.97;6100357;19;20060;-81
2023/05/31 06:57:59;;;;;;;27.60;10.57;;;;;;;17.89;62.95;102881.28;6102034;19;20010;-80
2023/05/31 07:00:07;;;;;;;25.77;9.63;;;;;;;17.73;63.54;102880.97;6098956;19;20779;-80
2023/05/31 07:02:19;;;;;;;20.90;8.60;;;;;;;17.77;62.81;102876.41;6080650;19;20010;-77
2023/05/31 07:04:26;;;;;;;26.10;9.10;;;;;;;18.12;62.35;102882.19;6091392;19;20890;-77
2023/05/31 07:06:32;;;;;;;22.73;9.85;;;;;;;17.86;62.71;102880.53;6095140;19;20322;-81
2023/05/31 07:08:36;;;;;;;22.00;9.77;;;;;;;18.03;62.16;102878.06;6095007;19;20015;-80
2023/05/31 07:10:45;;;;;;;22.20;8.45;;;;;;;18.16;61.44;102884.66;6095135;19;20498;-79
2023/05/31 07:12:50;;;;;;;20.50;9.65;;;;;;;18.05;61.61;102878.03;6081567;19;20090;-79
2023/05/31 07:14:56;;;;;;;26.38;8.82;;;;;;;18.25;61.09;102886.09;6101645;19;20006;-79
2023/05/31 07:17:02;;;;;;;26.35;9.40;;;;;;;18.51;60.40;102874.38;6099168;19;20011;-78
2023/05/31 07:19:07;;;;;;;20.02;8.80;;;;;;;18.61;60.57;102878.38;6100838;19;20052;-79
2023/05/31 07:21:14;;;;;;;21.63;9.25;;;;;;;18.86;60.02;102880.03;6101741;19;20044;-79
2023/05/31 07:23:19;;;;;;;23.15;9.15;;;;;;;18.65;59.87;102874.66;6098939;19;20023;-80
2023/05/31 07:25:25;;;;;;;21.58;8.05;;;;;;;18.63;59.04;102876.50;6091853;19;20007;-77
2023/05/31 07:27:32;;;;;;;18.52;8.10;;;;;;;18.83;59.32;102877.50;6094474;19;20066;-82
2023/05/31 07:29:37;;;;;;;21.85;8.63;;;;;;;18.54;59.15;102876.06;6102198;19;20007;-81
2023/05/31 07:31:43;;;;;;;21.33;8.20;;;;;;;18.77;59.14;102878.66;6098532;19;20038;-76
2023/05/31 07:33:48;;;;;;;20.30;8.57;;;;;;;19.10;58.61;102870.09;6088287;19;20010;-76
2023/05/31 07:35:55;;;;;;;18.80;8.45;;;;;;;19.14;57.99;102866.38;6096409;19;20007;-75
2023/05/31 07:38:05;;;;;;;23.65;9.50;;;;;;;19.48;57.37;102870.16;6090785;19;20563;-75
2023/05/31 07:40:15;;;;;;;18.80;7.85;;;;;;;19.25;57.38;102869.44;6095044;19;20006;-75
2023/05/31 07:42:24;;;;;;;18.55;7.60;;;;;;;19.56;56.76;102864.50;6094822;19;20011;-74
2023/05/31 07:44:45;;;;;;;21.95;9.45;;;;;;;19.66;56.41;102866.69;6093613;19;20010;-75
2023/05/31 07:46:54;;;;;;;19.75;9.68;;;;;;;20.00;56.85;102856.22;6091604;19;20051;-76
2023/05/31 07:49:02;;;;;;;18.42;8.95;;;;;;;20.01;55.75;102858.84;6098217;19;20010;-76
2023/05/31 07:51:09;;;;;;;15.77;7.53;;;;;;;20.08;55.34;102851.38;6093556;19;20010;-76
2023/05/31 07:53:18;;;;;;;16.55;7.60;;;;;;;20.17;55.33;102862.50;6086976;19;20092;-75
2023/05/31 07:55:24;;;;;;;27.23;8.65;;;;;;;20.07;55.24;102853.19;6087757;19;20034;-75
2023/05/31 07:57:53;;;;;;;20.88;8.82;;;;;;;20.42;54.26;102852.38;6087770;19;20049;-75
2023/05/31 08:00:01;;;;;;;18.92;7.88;;;;;;;20.77;54.13;102855.97;6091375;19;20035;-76
2023/05/31 08:02:07;;;;;;;18.63;7.72;;;;;;;20.66;54.00;102853.00;6093406;19;20043;-75
2023/05/31 08:04:18;;;;;;;22.60;9.32;;;;;;;20.81;53.69;102852.19;6094440;19;20436;-75
2023/05/31 08:06:23;;;;;;;19.05;7.93;;;;;;;21.04;53.40;102851.88;6096506;19;20502;-75
2023/05/31 08:08:38;;;;;;;20.73;7.25;;;;;;;21.00;52.24;102850.28;6094755;19;20492;-74
2023/05/31 08:11:11;;;;;;;20.05;8.65;;;;;;;21.00;53.03;102850.28;6096593;19;20372;-75
2023/05/31 08:13:16;;;;;;;20.60;8.50;;;;;;;20.74;52.93;102856.13;6099811;19;20051;-76
2023/05/31 08:15:25;;;;;;;20.83;7.95;;;;;;;21.20;53.32;102846.56;6097370;19;20024;-75
2023/05/31 08:17:35;;;;;;;23.05;9.50;;;;;;;21.09;52.42;102840.94;6075005;19;20002;-76
2023/05/31 08:19:40;;;;;;;16.33;7.55;;;;;;;21.05;52.50;102842.03;6102312;19;20006;-76
2023/05/31 08:21:46;;;;;;;19.77;8.30;;;;;;;21.04;53.13;102848.34;6099163;19;19995;-77
2023/05/31 08:23:55;;;;;;;19.92;7.47;;;;;;;21.11;53.55;102840.84;6083521;19;20031;-75
2023/05/31 08:26:00;;;;;;;17.33;7.30;;;;;;;21.51;52.52;102836.88;6099170;19;20017;-76
2023/05/31 08:28:05;;;;;;;15.85;8.60;;;;;;;21.25;51.49;102847.19;6096312;19;20010;-75
2023/05/31 08:30:14;;;;;;;20.65;8.43;;;;;;;21.45;52.10;102843.44;6070945;19;20090;-75
2023/05/31 08:32:21;;;;;;;17.52;7.25;;;;;;;21.48;51.21;102843.31;6097389;19;20003;-77
2023/05/31 08:34:30;;;;;;;20.63;8.20;;;;;;;21.72;51.66;102836.66;6098038;19;20427;-76
2023/05/31 08:36:40;;;;;;;18.77;8.07;;;;;;;21.65;50.26;102841.50;6099399;19;20011;-76
2023/05/31 08:38:45;;;;;;;14.80;7.10;;;;;;;21.72;50.25;102832.16;6074513;19;20010;-75
2023/05/31 08:40:55;;;;;;;18.08;7.82;;;;;;;21.68;51.03;102835.97;6100372;19;20515;-76
2023/05/31 08:43:15;;;;;;;;;;;;;;;21.82;50.29;102830.69;6101654;19;20436;-76
2023/05/31 08:45:28;;;;;;;19.55;7.25;;;;;;;22.15;49.72;102824.38;6095041;19;20427;-76
2023/05/31 08:47:45;;;;;;;21.80;8.55;;;;;;;22.14;50.27;102830.66;6099328;19;20025;-75
2023/05/31 08:49:54;;;;;;;15.40;7.47;;;;;;;22.11;49.93;102838.88;6105680;19;20052;-76
2023/05/31 08:52:01;;;;;;;18.80;7.45;;;;;;;22.47;49.61;102829.69;6101415;19;20439;-75
2023/05/31 08:54:12;;;;;;;17.13;7.50;;;;;;;22.65;49.38;102833.09;6102816;19;20013;-75
2023/05/31 08:56:18;;;;;;;18.83;7.68;;;;;;;22.66;48.40;102824.94;6108071;19;20017;-76
2023/05/31 08:58:28;;;;;;;17.90;7.40;;;;;;;22.18;49.14;102824.19;6105578;19;20030;-76
2023/05/31 09:00:36;;;;;;;18.50;7.43;;;;;;;22.83;49.12;102823.94;6101304;19;20422;-77
2023/05/31 09:02:44;;;;;;;18.98;7.55;;;;;;;23.12;48.70;102830.22;6101274;19;20010;-74
2023/05/31 09:04:49;;;;;;;16.42;7.72;;;;;;;23.16;47.42;102822.81;6102234;19;20051;-77
2023/05/31 09:06:57;;;;;;;14.77;7.05;;;;;;;23.37;48.16;102831.34;6107729;19;20782;-75
2023/05/31 09:09:06;;;;;;;13.93;7.20;;;;;;;23.21;47.68;102824.25;6108034;19;20026;-74
2023/05/31 09:11:12;;;;;;;21.75;7.15;;;;;;;23.53;47.57;102829.41;6104205;19;20759;-74
2023/05/31 09:13:32;;;;;;;17.42;7.35;;;;;;;23.42;47.17;102823.88;6108248;19;20412;-74
2023/05/31 09:15:40;;;;;;;17.05;6.72;;;;;;;23.56;47.04;102822.97;6104722;19;20317;-76
2023/05/31 09:17:48;;;;;;;16.38;5.80;;;;;;;23.56;46.67;102818.47;6094095;19;20074;-76
2023/05/31 09:19:54;;;;;;;15.18;6.72;;;;;;;23.86;46.18;102815.66;6107001;19;20391;-75
2023/05/31 09:22:00;;;;;;;15.18;7.45;;;;;;;23.62;45.71;102827.97;6108694;19;20003;-75
2023/05/31 09:24:04;;;;;;;17.85;6.88;;;;;;;23.30;46.40;102813.91;6110105;19;20014;-75
2023/05/31 09:26:10;;;;;;;17.75;7.13;;;;;;;23.31;46.71;102808.47;6109941;19;20053;-74
2023/05/31 09:28:15;;;;;;;17.65;7.25;;;;;;;23.31;46.58;102804.91;6112093;19;20027;-74
2023/05/31 09:30:20;;;;;;;15.13;7.50;;;;;;;23.33;46.18;102805.66;6109364;19;20117;-76
2023/05/31 09:32:27;;;;;;;16.20;7.40;;;;;;;23.66;47.01;102797.28;6101240;19;20027;-75
2023/05/31 09:34:36;;;;;;;16.30;6.22;;;;;;;23.75;45.77;102807.47;6103147;19;20458;-75
2023/05/31 09:36:45;;;;;;;17.83;6.50;;;;;;;23.96;46.16;102805.19;6103851;19;20020;-75
2023/05/31 09:38:50;;;;;;;15.80;6.70;;;;;;;24.16;45.96;102792.25;6100728;19;20283;-76
2023/05/31 09:40:57;;;;;;;16.05;6.57;;;;;;;24.01;44.77;102802.16;6097902;19;20041;-75
2023/05/31 09:43:03;;;;;;;13.85;6.18;;;;;;;24.13;45.73;102798.69;6094648;19;20498;-75
2023/05/31 09:45:09;;;;;;;17.42;7.40;;;;;;;24.31;45.20;102793.91;6099667;19;20047;-76
2023/05/31 09:47:14;;;;;;;17.02;7.68;;;;;;;24.06;44.96;102806.28;6094667;19;20019;-75
2023/05/31 09:49:24;;;;;;;14.82;6.30;;;;;;;24.08;45.07;102804.34;6096736;19;20203;-75
2023/05/31 09:51:32;;;;;;;12.77;6.82;;;;;;;23.93;45.54;102802.69;6090292;19;20081;-75
2023/05/31 09:53:45;;;;;;;13.90;6.28;;;;;;;24.15;44.57;102801.28;6091351;19;20002;-76
2023/05/31 09:55:51;;;;;;;17.98;6.85;;;;;;;23.73;45.23;102803.16;6093071;19;20464;-76
2023/05/31 09:57:57;;;;;;;16.92;6.28;;;;;;;23.59;45.21;102804.00;6095567;19;20511;-77
2023/05/31 10:00:04;;;;;;;17.20;5.90;;;;;;;23.61;44.71;102807.44;6098382;19;20117;-76
2023/05/31 10:02:10;;;;;;;15.48;6.60;;;;;;;23.98;44.83;102791.63;6099918;19;20514;-75
2023/05/31 10:04:16;;;;;;;16.35;6.78;;;;;;;24.21;45.07;102792.78;6098329;19;20398;-77
2023/05/31 10:06:25;;;;;;;15.82;7.13;;;;;;;24.10;44.00;102793.53;6097323;19;20015;-76
2023/05/31 10:08:33;;;;;;;12.32;6.07;;;;;;;23.88;44.21;102791.38;6098414;19;20007;-77
2023/05/31 10:10:41;;;;;;;15.45;6.00;;;;;;;23.92;44.63;102787.53;6096557;19;20462;-76
2023/05/31 10:12:54;;;;;;;14.85;6.10;;;;;;;23.58;44.99;102796.91;6099033;19;20013;-77
2023/05/31 10:15:05;;;;;;;13.52;5.78;;;;;;;24.37;44.63;102789.94;6099075;19;20971;-79
2023/05/31 10:17:25;;;;;;;15.73;6.90;;;;;;;24.59;42.73;102786.66;6097350;19;20011;-77
2023/05/31 10:19:37;;;;;;;13.43;6.32;;;;;;;24.19;43.58;102782.13;6090644;19;20012;-78
2023/05/31 10:21:46;;;;;;;14.63;6.45;;;;;;;24.24;43.82;102787.22;6094967;19;20034;-79
2023/05/31 10:23:59;;;;;;;13.75;5.90;;;;;;;23.97;43.92;102780.03;6100288;19;20110;-78
2023/05/31 10:26:15;;;;;;;14.10;5.47;;;;;;;24.35;44.30;102771.22;6104162;19;20599;-79
2023/05/31 10:28:26;;;;;;;14.80;7.20;;;;;;;23.90;43.25;102789.47;6101009;19;20011;-80
2023/05/31 10:30:34;;;;;;;16.27;6.72;;;;;;;23.72;44.28;102779.94;6102650;19;20010;-79
2023/05/31 10:32:46;;;;;;;13.52;6.10;;;;;;;24.34;43.81;102782.94;6104362;19;20086;-78
2023/05/31 10:34:54;;;;;;;15.27;6.45;;;;;;;24.13;44.02;102773.66;6101674;19;20022;-79
2023/05/31 10:36:59;;;;;;;12.50;5.80;;;;;;;24.39;43.47;102758.44;6104511;19;20014;-79
2023/05/31 10:39:15;;;;;;;13.93;5.80;;;;;;;24.41;43.31;102769.91;6099043;19;20014;-79
2023/05/31 10:41:26;;;;;;;17.13;5.97;;;;;;;24.31;43.93;102761.66;6104355;19;20006;-79
2023/05/31 10:43:40;;;;;;;13.23;6.32;;;;;;;24.67;43.48;102766.34;6100345;19;20090;-79
2023/05/31 10:45:51;;;;;;;15.43;6.18;;;;;;;24.62;42.57;102767.59;6105792;19;20035;-80
2023/05/31 10:48:03;;;;;;;12.13;6.43;;;;;;;24.35;43.45;102765.84;6102945;19;20382;-79
2023/05/31 10:50:10;;;;;;;9.65;5.20;;;;;;;24.45;43.18;102753.53;6109105;19;20075;-79
2023/05/31 10:52:16;;;;;;;14.77;5.18;;;;;;;24.91;42.77;102761.06;6100395;19;20006;-79
2023/05/31 10:54:30;;;;;;;12.65;6.65;;;;;;;25.03;41.86;102747.69;6109324;19;20006;-80
2023/05/31 10:56:36;;;;;;;15.27;6.25;;;;;;;24.64;42.68;102757.63;6111898;19;20027;-79
2023/05/31 10:58:44;;;;;;;11.82;5.35;;;;;;;24.90;42.04;102759.31;6108935;19;20551;-78
2023/05/31 11:00:50;;;;;;;10.88;5.30;;;;;;;24.90;42.08;102756.63;6107211;19;20045;-78
2023/05/31 11:02:59;;;;;;;11.70;5.60;;;;;;;25.23;42.12;102743.63;6111075;19;20081;-80
2023/05/31 11:05:24;;;;;;;12.40;5.15;;;;;;;25.25;41.21;102747.91;6106189;19;20114;-80
2023/05/31 11:07:34;;;;;;;12.70;5.28;;;;;;;24.82;41.94;102756.31;6098758;19;20035;-79
2023/05/31 11:09:56;;;;;;;15.63;6.00;;;;;;;24.73;40.92;102746.22;6102420;19;20015;-79
2023/05/31 11:12:02;;;;;;;11.73;5.32;;;;;;;24.91;41.44;102744.94;6099143;19;20019;-80
2023/05/31 11:14:10;;;;;;;11.40;5.10;;;;;;;25.13;41.64;102744.22;6099423;19;20006;-78